sensor_id;sensor_type;location;lat;lon;timestamp;P1;durP1;ratioP1;P2;durP2;ratioP2
422;SDS011;198;48.752;9.180;2023-03-20T00:03:50;11.37;;;3.87;;
422;SDS011;198;48.752;9.180;2023-03-20T00:06:26;7.20;;;4.70;;
422;SDS011;198;48.752;9.180;2023-03-20T00:08:55;5.97;;;3.43;;
422;SDS011;198;48.752;9.180;2023-03-20T00:14:08;5.63;;;3.47;;
422;SDS011;198;48.752;9.180;2023-03-20T00:16:36;4.53;;;3.63;;
422;SDS011;198;48.752;9.180;2023-03-20T00:19:04;3.30;;;2.53;;
422;SDS011;198;48.752;9.180;2023-03-20T00:21:30;5.50;;;2.63;;
422;SDS011;198;48.752;9.180;2023-03-20T00:23:56;2.47;;;2.17;;
422;SDS011;198;48.752;9.180;2023-03-20T00:26:23;10.17;;;2.37;;
422;SDS011;198;48.752;9.180;2023-03-20T00:28:52;3.40;;;1.90;;
422;SDS011;198;48.752;9.180;2023-03-20T00:33:58;3.73;;;3.00;;
422;SDS011;198;48.752;9.180;2023-03-20T00:36:25;5.73;;;3.17;;
422;SDS011;198;48.752;9.180;2023-03-20T00:38:51;3.23;;;2.67;;
422;SDS011;198;48.752;9.180;2023-03-20T00:41:22;3.30;;;2.37;;
422;SDS011;198;48.752;9.180;2023-03-20T00:43:54;4.33;;;2.70;;
422;SDS011;198;48.752;9.180;2023-03-20T00:46:23;4.13;;;2.80;;
422;SDS011;198;48.752;9.180;2023-03-20T00:48:50;4.60;;;2.90;;
422;SDS011;198;48.752;9.180;2023-03-20T00:51:16;4.50;;;3.20;;
422;SDS011;198;48.752;9.180;2023-03-20T00:53:42;4.50;;;2.50;;
422;SDS011;198;48.752;9.180;2023-03-20T00:56:53;5.10;;;3.57;;
422;SDS011;198;48.752;9.180;2023-03-20T00:58:53;3.57;;;2.97;;
422;SDS011;198;48.752;9.180;2023-03-20T01:01:19;5.27;;;3.47;;
422;SDS011;198;48.752;9.180;2023-03-20T01:03:44;3.33;;;2.17;;
422;SDS011;198;48.752;9.180;2023-03-20T01:06:10;5.33;;;3.13;;
422;SDS011;198;48.752;9.180;2023-03-20T01:08:36;3.07;;;2.43;;
422;SDS011;198;48.752;9.180;2023-03-20T01:11:02;4.10;;;2.63;;
422;SDS011;198;48.752;9.180;2023-03-20T01:13:28;5.13;;;2.37;;
422;SDS011;198;48.752;9.180;2023-03-20T01:15:56;2.80;;;2.60;;
422;SDS011;198;48.752;9.180;2023-03-20T01:18:23;7.33;;;2.60;;
422;SDS011;198;48.752;9.180;2023-03-20T01:20:50;4.43;;;3.20;;
422;SDS011;198;48.752;9.180;2023-03-20T01:23:19;6.30;;;3.63;;
422;SDS011;198;48.752;9.180;2023-03-20T01:25:47;4.13;;;3.30;;
422;SDS011;198;48.752;9.180;2023-03-20T01:30:43;2.80;;;2.47;;
422;SDS011;198;48.752;9.180;2023-03-20T01:33:19;3.27;;;2.70;;
422;SDS011;198;48.752;9.180;2023-03-20T01:35:47;2.90;;;2.20;;
422;SDS011;198;48.752;9.180;2023-03-20T01:38:23;3.17;;;2.50;;
422;SDS011;198;48.752;9.180;2023-03-20T01:40:54;6.30;;;2.27;;
422;SDS011;198;48.752;9.180;2023-03-20T01:43:27;2.30;;;1.83;;
422;SDS011;198;48.752;9.180;2023-03-20T01:51:13;2.70;;;1.87;;
422;SDS011;198;48.752;9.180;2023-03-20T01:53:42;3.00;;;2.00;;
422;SDS011;198;48.752;9.180;2023-03-20T01:56:11;2.93;;;1.77;;
422;SDS011;198;48.752;9.180;2023-03-20T01:58:40;2.40;;;2.07;;
422;SDS011;198;48.752;9.180;2023-03-20T02:01:10;6.30;;;2.53;;
422;SDS011;198;48.752;9.180;2023-03-20T02:03:37;2.30;;;2.00;;
422;SDS011;198;48.752;9.180;2023-03-20T02:06:04;1.93;;;1.70;;
422;SDS011;198;48.752;9.180;2023-03-20T02:08:31;2.37;;;1.60;;
422;SDS011;198;48.752;9.180;2023-03-20T02:11:04;2.50;;;1.63;;
422;SDS011;198;48.752;9.180;2023-03-20T02:13:30;2.40;;;1.60;;
422;SDS011;198;48.752;9.180;2023-03-20T02:16:04;1.33;;;1.13;;
422;SDS011;198;48.752;9.180;2023-03-20T02:18:31;1.83;;;1.60;;
422;SDS011;198;48.752;9.180;2023-03-20T02:23:52;1.50;;;1.40;;
422;SDS011;198;48.752;9.180;2023-03-20T02:29:20;1.17;;;1.10;;
422;SDS011;198;48.752;9.180;2023-03-20T02:32:36;1.40;;;1.30;;
422;SDS011;198;48.752;9.180;2023-03-20T02:44:12;0.93;;;0.90;;
422;SDS011;198;48.752;9.180;2023-03-20T02:46:53;1.90;;;1.03;;
422;SDS011;198;48.752;9.180;2023-03-20T02:49:41;1.13;;;1.10;;
422;SDS011;198;48.752;9.180;2023-03-20T02:52:13;0.77;;;0.67;;
422;SDS011;198;48.752;9.180;2023-03-20T03:00:26;1.73;;;0.93;;
422;SDS011;198;48.752;9.180;2023-03-20T03:03:19;2.83;;;0.80;;
422;SDS011;198;48.752;9.180;2023-03-20T03:05:57;1.07;;;0.97;;
422;SDS011;198;48.752;9.180;2023-03-20T03:08:29;0.87;;;0.80;;
422;SDS011;198;48.752;9.180;2023-03-20T03:11:03;0.77;;;0.67;;
422;SDS011;198;48.752;9.180;2023-03-20T03:13:31;0.90;;;0.80;;
422;SDS011;198;48.752;9.180;2023-03-20T03:16:34;1.43;;;1.03;;
422;SDS011;198;48.752;9.180;2023-03-20T03:19:00;0.90;;;0.80;;
422;SDS011;198;48.752;9.180;2023-03-20T03:21:31;1.80;;;0.90;;
422;SDS011;198;48.752;9.180;2023-03-20T03:23:59;0.90;;;0.80;;
422;SDS011;198;48.752;9.180;2023-03-20T03:26:26;1.33;;;1.23;;
422;SDS011;198;48.752;9.180;2023-03-20T03:28:56;0.80;;;0.70;;
422;SDS011;198;48.752;9.180;2023-03-20T03:31:31;1.00;;;0.90;;
422;SDS011;198;48.752;9.180;2023-03-20T03:33:57;0.80;;;0.70;;
422;SDS011;198;48.752;9.180;2023-03-20T03:41:57;0.97;;;0.87;;
422;SDS011;198;48.752;9.180;2023-03-20T03:47:15;0.90;;;0.80;;
422;SDS011;198;48.752;9.180;2023-03-20T03:49:54;9.00;;;1.10;;
422;SDS011;198;48.752;9.180;2023-03-20T03:52:24;0.80;;;0.70;;
422;SDS011;198;48.752;9.180;2023-03-20T03:54:57;0.90;;;0.80;;
422;SDS011;198;48.752;9.180;2023-03-20T03:57:30;0.90;;;0.80;;
422;SDS011;198;48.752;9.180;2023-03-20T04:00:02;1.27;;;1.03;;
422;SDS011;198;48.752;9.180;2023-03-20T04:02:30;0.83;;;0.77;;
422;SDS011;198;48.752;9.180;2023-03-20T04:04:57;0.80;;;0.70;;
422;SDS011;198;48.752;9.180;2023-03-20T04:07:26;1.90;;;0.90;;
422;SDS011;198;48.752;9.180;2023-03-20T04:09:53;0.83;;;0.77;;
422;SDS011;198;48.752;9.180;2023-03-20T04:12:33;0.90;;;0.80;;
422;SDS011;198;48.752;9.180;2023-03-20T04:14:58;1.53;;;1.10;;
422;SDS011;198;48.752;9.180;2023-03-20T04:17:24;1.80;;;1.20;;
422;SDS011;198;48.752;9.180;2023-03-20T04:19:50;1.10;;;1.00;;
422;SDS011;198;48.752;9.180;2023-03-20T04:22:15;0.97;;;0.87;;
422;SDS011;198;48.752;9.180;2023-03-20T04:24:41;1.20;;;1.03;;
422;SDS011;198;48.752;9.180;2023-03-20T04:27:06;3.77;;;0.83;;
422;SDS011;198;48.752;9.180;2023-03-20T04:29:32;1.30;;;1.10;;
422;SDS011;198;48.752;9.180;2023-03-20T04:31:57;1.10;;;1.00;;
422;SDS011;198;48.752;9.180;2023-03-20T04:34:23;0.93;;;0.90;;
422;SDS011;198;48.752;9.180;2023-03-20T04:36:49;1.20;;;1.10;;
422;SDS011;198;48.752;9.180;2023-03-20T04:39:15;1.00;;;0.93;;
422;SDS011;198;48.752;9.180;2023-03-20T04:41:40;1.17;;;1.10;;
422;SDS011;198;48.752;9.180;2023-03-20T04:44:06;1.07;;;1.03;;
422;SDS011;198;48.752;9.180;2023-03-20T04:46:31;1.27;;;1.10;;
422;SDS011;198;48.752;9.180;2023-03-20T04:48:57;3.00;;;1.20;;
422;SDS011;198;48.752;9.180;2023-03-20T04:51:23;2.10;;;1.07;;
422;SDS011;198;48.752;9.180;2023-03-20T04:53:48;1.13;;;1.03;;
422;SDS011;198;48.752;9.180;2023-03-20T04:56:14;1.13;;;1.03;;
422;SDS011;198;48.752;9.180;2023-03-20T04:58:39;1.13;;;1.03;;
422;SDS011;198;48.752;9.180;2023-03-20T05:01:05;5.70;;;0.90;;
422;SDS011;198;48.752;9.180;2023-03-20T05:03:31;1.17;;;0.93;;
422;SDS011;198;48.752;9.180;2023-03-20T05:05:57;0.80;;;0.70;;
422;SDS011;198;48.752;9.180;2023-03-20T05:08:23;1.00;;;0.90;;
422;SDS011;198;48.752;9.180;2023-03-20T05:10:48;1.00;;;0.90;;
422;SDS011;198;48.752;9.180;2023-03-20T05:13:14;1.17;;;0.90;;
422;SDS011;198;48.752;9.180;2023-03-20T05:15:40;1.23;;;1.00;;
422;SDS011;198;48.752;9.180;2023-03-20T05:18:05;0.87;;;0.77;;
422;SDS011;198;48.752;9.180;2023-03-20T05:20:31;0.90;;;0.80;;
422;SDS011;198;48.752;9.180;2023-03-20T05:22:56;0.77;;;0.70;;
422;SDS011;198;48.752;9.180;2023-03-20T05:25:22;1.47;;;1.20;;
422;SDS011;198;48.752;9.180;2023-03-20T05:27:47;1.23;;;1.10;;
422;SDS011;198;48.752;9.180;2023-03-20T05:30:13;2.47;;;1.20;;
422;SDS011;198;48.752;9.180;2023-03-20T05:32:39;0.93;;;0.83;;
422;SDS011;198;48.752;9.180;2023-03-20T05:35:06;1.57;;;0.80;;
422;SDS011;198;48.752;9.180;2023-03-20T05:37:32;1.47;;;1.10;;
422;SDS011;198;48.752;9.180;2023-03-20T05:39:58;1.03;;;0.93;;
422;SDS011;198;48.752;9.180;2023-03-20T05:42:24;1.10;;;1.00;;
422;SDS011;198;48.752;9.180;2023-03-20T05:44:49;1.10;;;1.00;;
422;SDS011;198;48.752;9.180;2023-03-20T05:47:15;1.60;;;0.97;;
422;SDS011;198;48.752;9.180;2023-03-20T05:49:40;2.80;;;1.00;;
422;SDS011;198;48.752;9.180;2023-03-20T05:52:06;1.87;;;1.10;;
422;SDS011;198;48.752;9.180;2023-03-20T05:54:31;1.80;;;1.60;;
422;SDS011;198;48.752;9.180;2023-03-20T05:56:57;1.10;;;1.00;;
422;SDS011;198;48.752;9.180;2023-03-20T05:59:22;2.23;;;1.50;;
422;SDS011;198;48.752;9.180;2023-03-20T06:01:48;5.70;;;1.10;;
422;SDS011;198;48.752;9.180;2023-03-20T06:04:13;1.20;;;1.10;;
422;SDS011;198;48.752;9.180;2023-03-20T06:06:39;1.23;;;1.13;;
422;SDS011;198;48.752;9.180;2023-03-20T06:09:05;1.27;;;1.17;;
422;SDS011;198;48.752;9.180;2023-03-20T06:11:31;1.20;;;1.10;;
422;SDS011;198;48.752;9.180;2023-03-20T06:13:57;1.20;;;1.10;;
422;SDS011;198;48.752;9.180;2023-03-20T06:16:23;2.50;;;1.57;;
422;SDS011;198;48.752;9.180;2023-03-20T06:18:48;1.37;;;1.27;;
422;SDS011;198;48.752;9.180;2023-03-20T06:21:14;2.50;;;1.40;;
422;SDS011;198;48.752;9.180;2023-03-20T06:23:40;1.40;;;1.33;;
422;SDS011;198;48.752;9.180;2023-03-20T06:26:05;1.50;;;1.27;;
422;SDS011;198;48.752;9.180;2023-03-20T06:28:31;1.47;;;1.37;;
422;SDS011;198;48.752;9.180;2023-03-20T06:30:56;4.60;;;1.60;;
422;SDS011;198;48.752;9.180;2023-03-20T06:33:22;1.10;;;1.00;;
422;SDS011;198;48.752;9.180;2023-03-20T06:35:48;1.93;;;1.20;;
422;SDS011;198;48.752;9.180;2023-03-20T06:38:14;4.47;;;1.43;;
422;SDS011;198;48.752;9.180;2023-03-20T06:40:39;3.63;;;1.17;;
422;SDS011;198;48.752;9.180;2023-03-20T06:43:05;1.53;;;1.20;;
422;SDS011;198;48.752;9.180;2023-03-20T06:45:31;1.43;;;1.37;;
422;SDS011;198;48.752;9.180;2023-03-20T06:47:57;1.33;;;1.27;;
422;SDS011;198;48.752;9.180;2023-03-20T06:50:22;1.40;;;1.20;;
422;SDS011;198;48.752;9.180;2023-03-20T06:52:48;1.10;;;1.10;;
422;SDS011;198;48.752;9.180;2023-03-20T06:55:14;9.27;;;1.50;;
422;SDS011;198;48.752;9.180;2023-03-20T06:57:40;1.50;;;1.00;;
422;SDS011;198;48.752;9.180;2023-03-20T07:00:05;1.53;;;1.07;;
422;SDS011;198;48.752;9.180;2023-03-20T07:02:32;1.33;;;0.93;;
422;SDS011;198;48.752;9.180;2023-03-20T07:04:57;1.70;;;1.40;;
422;SDS011;198;48.752;9.180;2023-03-20T07:07:23;1.60;;;1.47;;
422;SDS011;198;48.752;9.180;2023-03-20T07:09:49;1.27;;;1.13;;
422;SDS011;198;48.752;9.180;2023-03-20T07:12:15;6.13;;;1.30;;
422;SDS011;198;48.752;9.180;2023-03-20T07:14:43;1.00;;;0.90;;
422;SDS011;198;48.752;9.180;2023-03-20T07:17:09;1.93;;;1.30;;
422;SDS011;198;48.752;9.180;2023-03-20T07:19:36;1.30;;;1.20;;
422;SDS011;198;48.752;9.180;2023-03-20T07:22:03;1.37;;;1.27;;
422;SDS011;198;48.752;9.180;2023-03-20T07:24:33;1.77;;;1.37;;
422;SDS011;198;48.752;9.180;2023-03-20T07:26:59;2.40;;;1.20;;
422;SDS011;198;48.752;9.180;2023-03-20T07:29:25;2.90;;;1.60;;
422;SDS011;198;48.752;9.180;2023-03-20T07:31:50;3.43;;;1.60;;
422;SDS011;198;48.752;9.180;2023-03-20T07:34:16;1.73;;;1.40;;
422;SDS011;198;48.752;9.180;2023-03-20T07:36:42;3.23;;;1.50;;
422;SDS011;198;48.752;9.180;2023-03-20T07:39:07;1.73;;;1.47;;
422;SDS011;198;48.752;9.180;2023-03-20T07:41:33;1.63;;;1.53;;
422;SDS011;198;48.752;9.180;2023-03-20T07:44:00;1.43;;;1.33;;
422;SDS011;198;48.752;9.180;2023-03-20T07:46:25;3.47;;;1.30;;
422;SDS011;198;48.752;9.180;2023-03-20T07:48:51;2.23;;;1.40;;
422;SDS011;198;48.752;9.180;2023-03-20T07:51:16;2.77;;;1.80;;
422;SDS011;198;48.752;9.180;2023-03-20T07:53:42;1.60;;;1.33;;
422;SDS011;198;48.752;9.180;2023-03-20T07:56:08;1.63;;;1.47;;
422;SDS011;198;48.752;9.180;2023-03-20T07:58:34;1.73;;;1.47;;
422;SDS011;198;48.752;9.180;2023-03-20T08:01:00;3.60;;;1.73;;
422;SDS011;198;48.752;9.180;2023-03-20T08:03:26;1.97;;;1.60;;
422;SDS011;198;48.752;9.180;2023-03-20T08:05:52;1.77;;;1.53;;
422;SDS011;198;48.752;9.180;2023-03-20T08:08:18;1.40;;;1.30;;
422;SDS011;198;48.752;9.180;2023-03-20T08:10:44;1.87;;;1.40;;
422;SDS011;198;48.752;9.180;2023-03-20T08:13:09;2.20;;;1.57;;
422;SDS011;198;48.752;9.180;2023-03-20T08:15:35;2.33;;;1.83;;
422;SDS011;198;48.752;9.180;2023-03-20T08:18:00;1.73;;;1.43;;
422;SDS011;198;48.752;9.180;2023-03-20T08:20:26;2.80;;;1.40;;
422;SDS011;198;48.752;9.180;2023-03-20T08:22:51;1.50;;;1.50;;
422;SDS011;198;48.752;9.180;2023-03-20T08:25:17;2.63;;;1.83;;
422;SDS011;198;48.752;9.180;2023-03-20T08:27:43;3.70;;;1.93;;
422;SDS011;198;48.752;9.180;2023-03-20T08:30:08;1.53;;;1.47;;
422;SDS011;198;48.752;9.180;2023-03-20T08:32:34;2.73;;;1.80;;
422;SDS011;198;48.752;9.180;2023-03-20T08:35:00;1.87;;;1.50;;
422;SDS011;198;48.752;9.180;2023-03-20T08:37:26;4.70;;;1.80;;
422;SDS011;198;48.752;9.180;2023-03-20T08:39:52;1.27;;;1.17;;
422;SDS011;198;48.752;9.180;2023-03-20T08:42:17;2.27;;;1.60;;
422;SDS011;198;48.752;9.180;2023-03-20T08:44:43;2.03;;;1.63;;
422;SDS011;198;48.752;9.180;2023-03-20T08:47:09;1.97;;;1.77;;
422;SDS011;198;48.752;9.180;2023-03-20T08:49:36;1.40;;;1.30;;
422;SDS011;198;48.752;9.180;2023-03-20T08:52:01;1.83;;;1.50;;
422;SDS011;198;48.752;9.180;2023-03-20T08:54:27;1.80;;;1.37;;
422;SDS011;198;48.752;9.180;2023-03-20T08:56:53;2.00;;;1.57;;
422;SDS011;198;48.752;9.180;2023-03-20T08:59:19;4.63;;;1.77;;
422;SDS011;198;48.752;9.180;2023-03-20T09:01:45;1.93;;;1.40;;
422;SDS011;198;48.752;9.180;2023-03-20T09:04:12;1.50;;;1.20;;
422;SDS011;198;48.752;9.180;2023-03-20T09:06:38;2.73;;;1.60;;
422;SDS011;198;48.752;9.180;2023-03-20T09:09:04;2.60;;;1.50;;
422;SDS011;198;48.752;9.180;2023-03-20T09:11:31;9.63;;;1.50;;
422;SDS011;198;48.752;9.180;2023-03-20T09:13:57;1.37;;;1.37;;
422;SDS011;198;48.752;9.180;2023-03-20T09:16:23;2.23;;;1.40;;
422;SDS011;198;48.752;9.180;2023-03-20T09:18:49;1.40;;;1.33;;
422;SDS011;198;48.752;9.180;2023-03-20T09:21:14;3.60;;;1.40;;
422;SDS011;198;48.752;9.180;2023-03-20T09:23:40;3.20;;;1.17;;
422;SDS011;198;48.752;9.180;2023-03-20T09:26:06;1.23;;;1.03;;
422;SDS011;198;48.752;9.180;2023-03-20T09:28:31;1.53;;;1.20;;
422;SDS011;198;48.752;9.180;2023-03-20T09:30:58;2.10;;;1.50;;
422;SDS011;198;48.752;9.180;2023-03-20T09:33:23;6.80;;;2.30;;
422;SDS011;198;48.752;9.180;2023-03-20T09:35:49;2.60;;;1.73;;
422;SDS011;198;48.752;9.180;2023-03-20T09:38:15;1.97;;;1.37;;
422;SDS011;198;48.752;9.180;2023-03-20T09:51:42;2.27;;;1.83;;
422;SDS011;198;48.752;9.180;2023-03-20T09:56:51;1.33;;;1.27;;
422;SDS011;198;48.752;9.180;2023-03-20T09:59:18;3.47;;;1.97;;
422;SDS011;198;48.752;9.180;2023-03-20T10:01:49;6.90;;;2.00;;
422;SDS011;198;48.752;9.180;2023-03-20T10:04:17;3.30;;;1.77;;
422;SDS011;198;48.752;9.180;2023-03-20T10:06:44;3.57;;;2.07;;
422;SDS011;198;48.752;9.180;2023-03-20T10:09:17;3.47;;;1.83;;
422;SDS011;198;48.752;9.180;2023-03-20T10:12:09;6.10;;;1.33;;
422;SDS011;198;48.752;9.180;2023-03-20T10:15:00;2.80;;;2.07;;
422;SDS011;198;48.752;9.180;2023-03-20T10:20:23;4.60;;;1.87;;
422;SDS011;198;48.752;9.180;2023-03-20T10:22:53;1.70;;;1.50;;
422;SDS011;198;48.752;9.180;2023-03-20T10:25:27;1.90;;;1.30;;
422;SDS011;198;48.752;9.180;2023-03-20T10:36:22;4.07;;;1.40;;
422;SDS011;198;48.752;9.180;2023-03-20T10:39:02;5.17;;;1.73;;
422;SDS011;198;48.752;9.180;2023-03-20T10:41:37;3.00;;;1.90;;
422;SDS011;198;48.752;9.180;2023-03-20T10:44:09;5.70;;;1.43;;
422;SDS011;198;48.752;9.180;2023-03-20T10:46:57;2.07;;;1.23;;
422;SDS011;198;48.752;9.180;2023-03-20T10:51:56;1.80;;;1.20;;
422;SDS011;198;48.752;9.180;2023-03-20T10:54:26;2.20;;;1.30;;
422;SDS011;198;48.752;9.180;2023-03-20T10:56:56;5.20;;;1.57;;
422;SDS011;198;48.752;9.180;2023-03-20T10:59:25;2.40;;;1.53;;
422;SDS011;198;48.752;9.180;2023-03-20T11:01:57;2.60;;;1.00;;
422;SDS011;198;48.752;9.180;2023-03-20T11:04:23;1.77;;;1.40;;
422;SDS011;198;48.752;9.180;2023-03-20T11:09:32;2.00;;;1.30;;
422;SDS011;198;48.752;9.180;2023-03-20T11:11:59;2.20;;;1.10;;
422;SDS011;198;48.752;9.180;2023-03-20T11:14:30;2.90;;;1.23;;
422;SDS011;198;48.752;9.180;2023-03-20T11:17:03;4.70;;;1.77;;
422;SDS011;198;48.752;9.180;2023-03-20T11:19:34;2.47;;;1.50;;
422;SDS011;198;48.752;9.180;2023-03-20T11:22:05;2.60;;;1.40;;
422;SDS011;198;48.752;9.180;2023-03-20T11:24:35;3.40;;;1.40;;
422;SDS011;198;48.752;9.180;2023-03-20T11:27:08;11.50;;;1.70;;
422;SDS011;198;48.752;9.180;2023-03-20T11:29:36;2.63;;;1.90;;
422;SDS011;198;48.752;9.180;2023-03-20T11:32:22;2.10;;;1.53;;
422;SDS011;198;48.752;9.180;2023-03-20T11:34:54;3.67;;;2.40;;
422;SDS011;198;48.752;9.180;2023-03-20T11:37:33;4.57;;;2.53;;
422;SDS011;198;48.752;9.180;2023-03-20T11:40:00;3.53;;;2.30;;
422;SDS011;198;48.752;9.180;2023-03-20T11:42:39;3.70;;;2.47;;
422;SDS011;198;48.752;9.180;2023-03-20T11:45:36;4.60;;;2.50;;
422;SDS011;198;48.752;9.180;2023-03-20T11:48:04;4.10;;;2.70;;
422;SDS011;198;48.752;9.180;2023-03-20T11:50:40;5.27;;;2.90;;
422;SDS011;198;48.752;9.180;2023-03-20T11:53:18;5.40;;;2.67;;
422;SDS011;198;48.752;9.180;2023-03-20T11:56:00;4.57;;;3.00;;
422;SDS011;198;48.752;9.180;2023-03-20T11:58:29;3.10;;;2.27;;
422;SDS011;198;48.752;9.180;2023-03-20T12:00:55;4.53;;;2.53;;
422;SDS011;198;48.752;9.180;2023-03-20T12:03:36;6.57;;;3.57;;
422;SDS011;198;48.752;9.180;2023-03-20T12:06:07;3.63;;;2.30;;
422;SDS011;198;48.752;9.180;2023-03-20T12:08:38;6.00;;;2.83;;
422;SDS011;198;48.752;9.180;2023-03-20T12:13:59;5.53;;;3.50;;
422;SDS011;198;48.752;9.180;2023-03-20T12:16:30;3.10;;;2.23;;
422;SDS011;198;48.752;9.180;2023-03-20T12:19:00;4.10;;;3.37;;
422;SDS011;198;48.752;9.180;2023-03-20T12:21:51;7.90;;;3.77;;
422;SDS011;198;48.752;9.180;2023-03-20T12:24:28;6.20;;;2.97;;
422;SDS011;198;48.752;9.180;2023-03-20T12:29:39;4.00;;;2.57;;
422;SDS011;198;48.752;9.180;2023-03-20T12:37:44;4.77;;;3.10;;
422;SDS011;198;48.752;9.180;2023-03-20T12:40:16;4.47;;;2.33;;
422;SDS011;198;48.752;9.180;2023-03-20T12:45:38;5.60;;;2.80;;
422;SDS011;198;48.752;9.180;2023-03-20T12:51:05;6.30;;;2.57;;
422;SDS011;198;48.752;9.180;2023-03-20T12:59:43;4.53;;;2.83;;
422;SDS011;198;48.752;9.180;2023-03-20T13:05:08;4.73;;;2.60;;
422;SDS011;198;48.752;9.180;2023-03-20T13:10:54;6.53;;;2.90;;
422;SDS011;198;48.752;9.180;2023-03-20T13:13:35;3.37;;;1.90;;
422;SDS011;198;48.752;9.180;2023-03-20T13:18:48;7.03;;;3.07;;
422;SDS011;198;48.752;9.180;2023-03-20T13:26:53;4.17;;;2.67;;
422;SDS011;198;48.752;9.180;2023-03-20T13:32:21;7.07;;;2.90;;
422;SDS011;198;48.752;9.180;2023-03-20T13:37:52;3.97;;;2.50;;
422;SDS011;198;48.752;9.180;2023-03-20T13:40:25;4.57;;;2.77;;
422;SDS011;198;48.752;9.180;2023-03-20T13:47:57;4.60;;;3.20;;
422;SDS011;198;48.752;9.180;2023-03-20T13:50:31;3.87;;;2.60;;
422;SDS011;198;48.752;9.180;2023-03-20T13:53:18;12.80;;;4.00;;
422;SDS011;198;48.752;9.180;2023-03-20T13:55:57;5.73;;;3.63;;
422;SDS011;198;48.752;9.180;2023-03-20T13:58:36;9.80;;;3.90;;
422;SDS011;198;48.752;9.180;2023-03-20T14:02:03;7.27;;;2.70;;
422;SDS011;198;48.752;9.180;2023-03-20T14:04:21;8.87;;;3.73;;
422;SDS011;198;48.752;9.180;2023-03-20T14:09:30;4.00;;;2.30;;
422;SDS011;198;48.752;9.180;2023-03-20T14:12:00;3.60;;;2.47;;
422;SDS011;198;48.752;9.180;2023-03-20T14:19:38;3.80;;;2.20;;
422;SDS011;198;48.752;9.180;2023-03-20T14:22:04;2.77;;;2.00;;
422;SDS011;198;48.752;9.180;2023-03-20T14:24:31;3.73;;;2.03;;
422;SDS011;198;48.752;9.180;2023-03-20T14:27:01;4.00;;;1.83;;
422;SDS011;198;48.752;9.180;2023-03-20T14:32:01;8.63;;;2.30;;
422;SDS011;198;48.752;9.180;2023-03-20T14:34:27;3.13;;;1.83;;
422;SDS011;198;48.752;9.180;2023-03-20T14:48:08;5.50;;;2.77;;
422;SDS011;198;48.752;9.180;2023-03-20T14:53:39;8.00;;;2.77;;
422;SDS011;198;48.752;9.180;2023-03-20T14:56:09;8.90;;;2.00;;
422;SDS011;198;48.752;9.180;2023-03-20T14:58:40;5.00;;;2.50;;
422;SDS011;198;48.752;9.180;2023-03-20T15:01:14;18.43;;;2.00;;
422;SDS011;198;48.752;9.180;2023-03-20T15:03:40;4.13;;;2.03;;
422;SDS011;198;48.752;9.180;2023-03-20T15:06:08;4.97;;;1.50;;
422;SDS011;198;48.752;9.180;2023-03-20T15:08:35;5.00;;;1.80;;
422;SDS011;198;48.752;9.180;2023-03-20T15:11:12;5.60;;;2.70;;
422;SDS011;198;48.752;9.180;2023-03-20T15:13:38;8.60;;;2.10;;
422;SDS011;198;48.752;9.180;2023-03-20T15:16:10;8.40;;;1.93;;
422;SDS011;198;48.752;9.180;2023-03-20T15:18:41;3.80;;;2.10;;
422;SDS011;198;48.752;9.180;2023-03-20T15:21:18;5.00;;;2.10;;
422;SDS011;198;48.752;9.180;2023-03-20T15:23:47;2.87;;;1.80;;
422;SDS011;198;48.752;9.180;2023-03-20T15:26:13;5.30;;;2.17;;
422;SDS011;198;48.752;9.180;2023-03-20T15:28:40;4.70;;;2.40;;
422;SDS011;198;48.752;9.180;2023-03-20T15:31:12;3.10;;;1.70;;
422;SDS011;198;48.752;9.180;2023-03-20T15:33:51;3.77;;;1.80;;
422;SDS011;198;48.752;9.180;2023-03-20T15:36:17;5.67;;;2.27;;
422;SDS011;198;48.752;9.180;2023-03-20T15:38:46;4.10;;;2.30;;
422;SDS011;198;48.752;9.180;2023-03-20T15:41:34;2.70;;;1.90;;
422;SDS011;198;48.752;9.180;2023-03-20T15:44:47;2.13;;;1.90;;
422;SDS011;198;48.752;9.180;2023-03-20T15:47:00;2.33;;;2.13;;
422;SDS011;198;48.752;9.180;2023-03-20T15:49:27;3.13;;;1.47;;
422;SDS011;198;48.752;9.180;2023-03-20T15:51:56;2.57;;;1.90;;
422;SDS011;198;48.752;9.180;2023-03-20T15:54:24;2.93;;;1.20;;
422;SDS011;198;48.752;9.180;2023-03-20T15:56:51;3.63;;;1.20;;
422;SDS011;198;48.752;9.180;2023-03-20T15:59:20;1.20;;;1.10;;
422;SDS011;198;48.752;9.180;2023-03-20T16:01:50;1.50;;;1.20;;
422;SDS011;198;48.752;9.180;2023-03-20T16:04:17;1.10;;;1.07;;
422;SDS011;198;48.752;9.180;2023-03-20T16:06:44;2.10;;;0.93;;
422;SDS011;198;48.752;9.180;2023-03-20T16:09:17;2.30;;;1.27;;
422;SDS011;198;48.752;9.180;2023-03-20T16:11:45;2.53;;;1.20;;
422;SDS011;198;48.752;9.180;2023-03-20T16:14:14;3.70;;;1.20;;
422;SDS011;198;48.752;9.180;2023-03-20T16:16:44;2.07;;;1.53;;
422;SDS011;198;48.752;9.180;2023-03-20T16:19:12;1.60;;;1.30;;
422;SDS011;198;48.752;9.180;2023-03-20T16:21:39;2.70;;;1.67;;
422;SDS011;198;48.752;9.180;2023-03-20T16:24:14;1.57;;;1.43;;
422;SDS011;198;48.752;9.180;2023-03-20T16:26:47;5.40;;;1.37;;
422;SDS011;198;48.752;9.180;2023-03-20T16:29:14;3.30;;;1.30;;
422;SDS011;198;48.752;9.180;2023-03-20T16:32:05;2.20;;;1.37;;
422;SDS011;198;48.752;9.180;2023-03-20T16:34:47;1.20;;;1.10;;
422;SDS011;198;48.752;9.180;2023-03-20T16:37:31;2.10;;;1.40;;
422;SDS011;198;48.752;9.180;2023-03-20T16:42:42;1.67;;;1.27;;
422;SDS011;198;48.752;9.180;2023-03-20T16:45:25;2.07;;;1.47;;
422;SDS011;198;48.752;9.180;2023-03-20T16:48:14;4.27;;;1.50;;
422;SDS011;198;48.752;9.180;2023-03-20T16:50:53;2.30;;;1.67;;
422;SDS011;198;48.752;9.180;2023-03-20T16:53:21;2.00;;;1.50;;
422;SDS011;198;48.752;9.180;2023-03-20T16:55:49;4.50;;;1.57;;
422;SDS011;198;48.752;9.180;2023-03-20T16:58:20;1.93;;;1.50;;
422;SDS011;198;48.752;9.180;2023-03-20T17:00:57;3.83;;;1.30;;
422;SDS011;198;48.752;9.180;2023-03-20T17:06:04;1.30;;;1.20;;
422;SDS011;198;48.752;9.180;2023-03-20T17:11:10;3.27;;;1.57;;
422;SDS011;198;48.752;9.180;2023-03-20T17:13:38;2.63;;;1.40;;
422;SDS011;198;48.752;9.180;2023-03-20T17:16:08;3.30;;;1.50;;
422;SDS011;198;48.752;9.180;2023-03-20T17:18:37;2.23;;;1.40;;
422;SDS011;198;48.752;9.180;2023-03-20T17:21:02;3.93;;;1.50;;
422;SDS011;198;48.752;9.180;2023-03-20T17:23:28;1.70;;;1.30;;
422;SDS011;198;48.752;9.180;2023-03-20T17:25:54;7.40;;;1.70;;
422;SDS011;198;48.752;9.180;2023-03-20T17:28:21;3.03;;;1.03;;
422;SDS011;198;48.752;9.180;2023-03-20T17:30:50;4.97;;;2.20;;
422;SDS011;198;48.752;9.180;2023-03-20T17:33:16;2.60;;;1.63;;
422;SDS011;198;48.752;9.180;2023-03-20T17:35:44;1.43;;;1.13;;
422;SDS011;198;48.752;9.180;2023-03-20T17:38:15;1.20;;;1.10;;
422;SDS011;198;48.752;9.180;2023-03-20T17:40:42;2.40;;;1.60;;
422;SDS011;198;48.752;9.180;2023-03-20T17:43:09;2.23;;;1.50;;
422;SDS011;198;48.752;9.180;2023-03-20T17:45:35;1.40;;;1.20;;
422;SDS011;198;48.752;9.180;2023-03-20T17:48:01;2.53;;;1.87;;
422;SDS011;198;48.752;9.180;2023-03-20T17:50:26;2.10;;;1.30;;
422;SDS011;198;48.752;9.180;2023-03-20T17:52:52;2.20;;;1.30;;
422;SDS011;198;48.752;9.180;2023-03-20T17:55:18;2.60;;;1.50;;
422;SDS011;198;48.752;9.180;2023-03-20T17:57:44;5.43;;;1.93;;
422;SDS011;198;48.752;9.180;2023-03-20T18:00:18;6.03;;;1.50;;
422;SDS011;198;48.752;9.180;2023-03-20T18:02:46;5.40;;;1.90;;
422;SDS011;198;48.752;9.180;2023-03-20T18:05:12;2.63;;;1.40;;
422;SDS011;198;48.752;9.180;2023-03-20T18:07:37;3.57;;;1.73;;
422;SDS011;198;48.752;9.180;2023-03-20T18:10:03;1.50;;;1.40;;
422;SDS011;198;48.752;9.180;2023-03-20T18:12:30;1.30;;;1.30;;
422;SDS011;198;48.752;9.180;2023-03-20T18:14:58;1.73;;;1.60;;
422;SDS011;198;48.752;9.180;2023-03-20T18:17:24;3.80;;;2.00;;
422;SDS011;198;48.752;9.180;2023-03-20T18:19:51;2.20;;;1.63;;
422;SDS011;198;48.752;9.180;2023-03-20T18:22:17;2.10;;;1.73;;
422;SDS011;198;48.752;9.180;2023-03-20T18:24:42;2.50;;;1.70;;
422;SDS011;198;48.752;9.180;2023-03-20T18:27:08;1.60;;;1.50;;
422;SDS011;198;48.752;9.180;2023-03-20T18:29:34;5.03;;;2.03;;
422;SDS011;198;48.752;9.180;2023-03-20T18:32:00;2.87;;;1.60;;
422;SDS011;198;48.752;9.180;2023-03-20T18:34:26;3.30;;;2.00;;